sensor_id;sensor_type;location;lat;lon;timestamp;temperature;humidity
429;DHT22;201;48.758;9.290;2022-10-26T00:01:17;11.90;10.90
429;DHT22;201;48.758;9.290;2022-10-26T00:03:44;11.90;10.90
429;DHT22;201;48.758;9.290;2022-10-26T00:06:16;11.90;10.90
429;DHT22;201;48.758;9.290;2022-10-26T00:08:42;11.90;11.00
429;DHT22;201;48.758;9.290;2022-10-26T00:11:08;11.90;10.90
429;DHT22;201;48.758;9.290;2022-10-26T00:13:35;11.90;11.10
429;DHT22;201;48.758;9.290;2022-10-26T00:16:01;11.90;10.90
429;DHT22;201;48.758;9.290;2022-10-26T00:18:31;11.90;11.20
429;DHT22;201;48.758;9.290;2022-10-26T00:21:02;11.90;10.90
429;DHT22;201;48.758;9.290;2022-10-26T00:23:28;11.90;10.90
429;DHT22;201;48.758;9.290;2022-10-26T00:25:55;11.90;10.90
429;DHT22;201;48.758;9.290;2022-10-26T00:28:21;11.80;10.90
429;DHT22;201;48.758;9.290;2022-10-26T00:30:47;11.80;10.90
429;DHT22;201;48.758;9.290;2022-10-26T00:33:12;11.80;11.50
429;DHT22;201;48.758;9.290;2022-10-26T00:35:38;11.80;11.50
429;DHT22;201;48.758;9.290;2022-10-26T00:38:04;11.80;11.80
429;DHT22;201;48.758;9.290;2022-10-26T00:40:29;11.80;11.70
429;DHT22;201;48.758;9.290;2022-10-26T00:42:55;11.80;11.90
429;DHT22;201;48.758;9.290;2022-10-26T00:45:26;11.80;11.90
429;DHT22;201;48.758;9.290;2022-10-26T00:48:04;11.80;12.00
429;DHT22;201;48.758;9.290;2022-10-26T00:50:38;11.80;12.10
429;DHT22;201;48.758;9.290;2022-10-26T00:53:06;11.70;12.20
429;DHT22;201;48.758;9.290;2022-10-26T00:55:42;11.80;12.30
429;DHT22;201;48.758;9.290;2022-10-26T00:58:09;11.80;12.50
429;DHT22;201;48.758;9.290;2022-10-26T01:00:35;11.80;12.30
429;DHT22;201;48.758;9.290;2022-10-26T01:03:04;11.80;12.50
429;DHT22;201;48.758;9.290;2022-10-26T01:05:31;11.80;12.50
429;DHT22;201;48.758;9.290;2022-10-26T01:07:57;11.80;12.60
429;DHT22;201;48.758;9.290;2022-10-26T01:10:24;11.70;12.70
429;DHT22;201;48.758;9.290;2022-10-26T01:12:51;11.70;13.00
429;DHT22;201;48.758;9.290;2022-10-26T01:15:17;11.70;13.20
429;DHT22;201;48.758;9.290;2022-10-26T01:17:56;11.60;13.50
429;DHT22;201;48.758;9.290;2022-10-26T01:32:26;11.60;15.00
429;DHT22;201;48.758;9.290;2022-10-26T01:34:41;11.60;15.20
429;DHT22;201;48.758;9.290;2022-10-26T01:37:16;11.50;15.30
429;DHT22;201;48.758;9.290;2022-10-26T01:39:47;11.60;15.60
429;DHT22;201;48.758;9.290;2022-10-26T01:42:17;11.60;15.60
429;DHT22;201;48.758;9.290;2022-10-26T01:44:48;11.60;15.70
429;DHT22;201;48.758;9.290;2022-10-26T01:47:17;11.60;15.70
429;DHT22;201;48.758;9.290;2022-10-26T01:49:48;11.60;15.70
429;DHT22;201;48.758;9.290;2022-10-26T01:52:17;11.60;15.70
429;DHT22;201;48.758;9.290;2022-10-26T01:54:42;11.70;15.60
429;DHT22;201;48.758;9.290;2022-10-26T01:57:10;11.80;15.80
429;DHT22;201;48.758;9.290;2022-10-26T02:13:37;12.00;15.30
429;DHT22;201;48.758;9.290;2022-10-26T02:16:21;12.00;15.30
429;DHT22;201;48.758;9.290;2022-10-26T02:19:02;11.90;14.50
429;DHT22;201;48.758;9.290;2022-10-26T02:21:38;11.90;14.60
429;DHT22;201;48.758;9.290;2022-10-26T02:24:07;11.80;14.50
429;DHT22;201;48.758;9.290;2022-10-26T02:26:35;11.70;14.50
429;DHT22;201;48.758;9.290;2022-10-26T02:29:06;11.60;14.70
429;DHT22;201;48.758;9.290;2022-10-26T02:31:32;11.60;15.00
429;DHT22;201;48.758;9.290;2022-10-26T02:34:02;11.60;15.30
429;DHT22;201;48.758;9.290;2022-10-26T02:36:31;11.60;15.50
429;DHT22;201;48.758;9.290;2022-10-26T02:38:58;11.60;13.90
429;DHT22;201;48.758;9.290;2022-10-26T02:41:27;11.70;13.20
429;DHT22;201;48.758;9.290;2022-10-26T02:44:09;11.70;13.20
429;DHT22;201;48.758;9.290;2022-10-26T02:46:37;11.80;13.30
429;DHT22;201;48.758;9.290;2022-10-26T02:49:03;11.80;13.30
429;DHT22;201;48.758;9.290;2022-10-26T02:51:35;11.80;13.40
429;DHT22;201;48.758;9.290;2022-10-26T02:56:59;11.80;14.00
429;DHT22;201;48.758;9.290;2022-10-26T02:59:26;11.80;14.00
429;DHT22;201;48.758;9.290;2022-10-26T03:01:53;11.70;14.00
429;DHT22;201;48.758;9.290;2022-10-26T03:04:19;11.80;14.00
429;DHT22;201;48.758;9.290;2022-10-26T03:06:51;11.70;13.70
429;DHT22;201;48.758;9.290;2022-10-26T03:09:17;11.80;13.50
429;DHT22;201;48.758;9.290;2022-10-26T03:11:43;11.80;12.80
429;DHT22;201;48.758;9.290;2022-10-26T03:14:08;11.80;12.30
429;DHT22;201;48.758;9.290;2022-10-26T03:16:34;12.00;12.70
429;DHT22;201;48.758;9.290;2022-10-26T03:18:59;12.00;12.70
429;DHT22;201;48.758;9.290;2022-10-26T03:21:25;12.10;12.40
429;DHT22;201;48.758;9.290;2022-10-26T03:23:50;12.20;12.40
429;DHT22;201;48.758;9.290;2022-10-26T03:26:16;12.20;12.10
429;DHT22;201;48.758;9.290;2022-10-26T03:28:42;12.30;12.00
429;DHT22;201;48.758;9.290;2022-10-26T03:31:07;12.40;11.70
429;DHT22;201;48.758;9.290;2022-10-26T03:33:33;12.40;11.30
429;DHT22;201;48.758;9.290;2022-10-26T03:35:58;12.40;11.30
429;DHT22;201;48.758;9.290;2022-10-26T03:38:24;12.40;11.30
429;DHT22;201;48.758;9.290;2022-10-26T03:40:49;12.40;11.30
429;DHT22;201;48.758;9.290;2022-10-26T03:43:15;12.40;11.30
429;DHT22;201;48.758;9.290;2022-10-26T03:45:41;12.40;11.30
429;DHT22;201;48.758;9.290;2022-10-26T03:48:06;12.40;11.30
429;DHT22;201;48.758;9.290;2022-10-26T03:50:32;12.40;11.30
429;DHT22;201;48.758;9.290;2022-10-26T03:52:57;12.30;11.20
429;DHT22;201;48.758;9.290;2022-10-26T03:55:23;12.30;11.20
429;DHT22;201;48.758;9.290;2022-10-26T03:57:48;12.20;11.40
429;DHT22;201;48.758;9.290;2022-10-26T04:00:15;12.10;12.20
429;DHT22;201;48.758;9.290;2022-10-26T04:02:42;12.10;12.50
429;DHT22;201;48.758;9.290;2022-10-26T04:05:08;12.10;13.00
429;DHT22;201;48.758;9.290;2022-10-26T04:07:34;12.00;12.80
429;DHT22;201;48.758;9.290;2022-10-26T04:09:59;12.10;13.30
429;DHT22;201;48.758;9.290;2022-10-26T04:12:25;12.00;13.50
429;DHT22;201;48.758;9.290;2022-10-26T04:14:52;12.00;13.90
429;DHT22;201;48.758;9.290;2022-10-26T04:17:17;12.00;13.90
429;DHT22;201;48.758;9.290;2022-10-26T04:19:43;12.00;13.20
429;DHT22;201;48.758;9.290;2022-10-26T04:22:08;12.00;13.20
429;DHT22;201;48.758;9.290;2022-10-26T04:24:34;12.00;13.20
429;DHT22;201;48.758;9.290;2022-10-26T04:26:59;12.00;13.20
429;DHT22;201;48.758;9.290;2022-10-26T04:29:25;12.00;13.30
429;DHT22;201;48.758;9.290;2022-10-26T04:31:50;12.00;13.40
429;DHT22;201;48.758;9.290;2022-10-26T04:34:16;12.10;13.90
429;DHT22;201;48.758;9.290;2022-10-26T04:36:41;12.10;13.00
429;DHT22;201;48.758;9.290;2022-10-26T04:39:07;12.10;13.20
429;DHT22;201;48.758;9.290;2022-10-26T04:41:32;12.00;14.00
429;DHT22;201;48.758;9.290;2022-10-26T04:43:58;11.80;15.20
429;DHT22;201;48.758;9.290;2022-10-26T04:46:23;11.70;16.40
429;DHT22;201;48.758;9.290;2022-10-26T04:48:49;11.60;17.20
429;DHT22;201;48.758;9.290;2022-10-26T04:51:14;11.50;17.80
429;DHT22;201;48.758;9.290;2022-10-26T04:53:40;11.50;18.90
429;DHT22;201;48.758;9.290;2022-10-26T04:56:05;11.40;19.10
429;DHT22;201;48.758;9.290;2022-10-26T04:58:31;11.40;19.00
429;DHT22;201;48.758;9.290;2022-10-26T05:00:56;11.40;19.10
429;DHT22;201;48.758;9.290;2022-10-26T05:03:22;11.40;19.70
429;DHT22;201;48.758;9.290;2022-10-26T05:05:48;11.40;20.10
429;DHT22;201;48.758;9.290;2022-10-26T05:08:14;11.30;20.40
429;DHT22;201;48.758;9.290;2022-10-26T05:10:40;11.30;21.00
429;DHT22;201;48.758;9.290;2022-10-26T05:13:06;11.30;21.30
429;DHT22;201;48.758;9.290;2022-10-26T05:15:31;11.30;21.70
429;DHT22;201;48.758;9.290;2022-10-26T05:17:59;11.30;22.00
429;DHT22;201;48.758;9.290;2022-10-26T05:20:26;11.30;22.30
429;DHT22;201;48.758;9.290;2022-10-26T05:22:58;11.20;22.70
429;DHT22;201;48.758;9.290;2022-10-26T05:25:24;11.30;23.10
429;DHT22;201;48.758;9.290;2022-10-26T05:27:50;11.20;23.10
429;DHT22;201;48.758;9.290;2022-10-26T05:30:15;11.20;23.30
429;DHT22;201;48.758;9.290;2022-10-26T05:32:41;11.20;23.50
429;DHT22;201;48.758;9.290;2022-10-26T05:35:07;11.30;23.90
429;DHT22;201;48.758;9.290;2022-10-26T05:37:32;11.30;23.90
429;DHT22;201;48.758;9.290;2022-10-26T05:39:57;11.30;24.10
429;DHT22;201;48.758;9.290;2022-10-26T05:42:23;11.40;24.20
429;DHT22;201;48.758;9.290;2022-10-26T05:44:49;11.40;24.30
429;DHT22;201;48.758;9.290;2022-10-26T05:47:15;11.40;24.20
429;DHT22;201;48.758;9.290;2022-10-26T05:49:40;11.50;24.30
429;DHT22;201;48.758;9.290;2022-10-26T05:52:06;11.40;24.20
429;DHT22;201;48.758;9.290;2022-10-26T05:54:31;11.50;24.30
429;DHT22;201;48.758;9.290;2022-10-26T05:56:57;11.50;24.30
429;DHT22;201;48.758;9.290;2022-10-26T05:59:23;11.50;24.20
429;DHT22;201;48.758;9.290;2022-10-26T06:02:03;11.50;24.20
429;DHT22;201;48.758;9.290;2022-10-26T06:04:43;11.60;24.20
429;DHT22;201;48.758;9.290;2022-10-26T06:07:16;11.60;24.20
429;DHT22;201;48.758;9.290;2022-10-26T06:09:43;11.70;24.20
429;DHT22;201;48.758;9.290;2022-10-26T06:12:09;11.70;24.20
429;DHT22;201;48.758;9.290;2022-10-26T06:14:36;11.70;24.20
429;DHT22;201;48.758;9.290;2022-10-26T06:17:20;11.80;24.10
429;DHT22;201;48.758;9.290;2022-10-26T06:19:54;11.80;24.00
429;DHT22;201;48.758;9.290;2022-10-26T06:23:16;11.90;23.90
429;DHT22;201;48.758;9.290;2022-10-26T06:25:46;12.00;23.70
429;DHT22;201;48.758;9.290;2022-10-26T06:28:36;12.00;23.40
429;DHT22;201;48.758;9.290;2022-10-26T06:31:06;12.00;22.90
429;DHT22;201;48.758;9.290;2022-10-26T06:33:31;12.00;22.40
429;DHT22;201;48.758;9.290;2022-10-26T06:38:43;12.00;22.20
429;DHT22;201;48.758;9.290;2022-10-26T06:41:11;12.00;22.10
429;DHT22;201;48.758;9.290;2022-10-26T06:43:39;12.10;22.10
429;DHT22;201;48.758;9.290;2022-10-26T06:51:37;12.10;21.30
429;DHT22;201;48.758;9.290;2022-10-26T06:54:22;12.10;21.20
429;DHT22;201;48.758;9.290;2022-10-26T06:56:50;12.10;21.20
429;DHT22;201;48.758;9.290;2022-10-26T06:59:56;12.20;21.30
429;DHT22;201;48.758;9.290;2022-10-26T07:02:23;12.20;21.50
429;DHT22;201;48.758;9.290;2022-10-26T07:04:48;12.20;21.40
429;DHT22;201;48.758;9.290;2022-10-26T07:07:17;12.20;21.50
429;DHT22;201;48.758;9.290;2022-10-26T07:09:44;12.30;21.60
429;DHT22;201;48.758;9.290;2022-10-26T07:12:09;12.30;21.40
429;DHT22;201;48.758;9.290;2022-10-26T07:14:35;12.30;21.30
429;DHT22;201;48.758;9.290;2022-10-26T07:17:00;12.30;20.70
429;DHT22;201;48.758;9.290;2022-10-26T07:19:26;12.40;20.60
429;DHT22;201;48.758;9.290;2022-10-26T07:21:55;12.40;20.70
429;DHT22;201;48.758;9.290;2022-10-26T07:24:21;12.40;20.50
429;DHT22;201;48.758;9.290;2022-10-26T07:26:47;12.40;19.80
429;DHT22;201;48.758;9.290;2022-10-26T07:29:13;12.40;19.80
429;DHT22;201;48.758;9.290;2022-10-26T07:31:40;12.50;19.90
429;DHT22;201;48.758;9.290;2022-10-26T07:34:06;12.50;19.90
429;DHT22;201;48.758;9.290;2022-10-26T07:36:31;12.50;19.80
429;DHT22;201;48.758;9.290;2022-10-26T07:38:58;12.60;19.40
429;DHT22;201;48.758;9.290;2022-10-26T07:41:23;12.60;19.20
429;DHT22;201;48.758;9.290;2022-10-26T07:43:49;12.70;19.40
429;DHT22;201;48.758;9.290;2022-10-26T07:46:15;12.70;19.00
429;DHT22;201;48.758;9.290;2022-10-26T07:48:41;12.80;19.00
429;DHT22;201;48.758;9.290;2022-10-26T07:51:07;12.80;18.90
429;DHT22;201;48.758;9.290;2022-10-26T07:53:32;12.80;18.40
429;DHT22;201;48.758;9.290;2022-10-26T07:55:58;12.90;18.40
429;DHT22;201;48.758;9.290;2022-10-26T07:58:23;12.90;18.10
429;DHT22;201;48.758;9.290;2022-10-26T08:00:53;12.90;17.70
429;DHT22;201;48.758;9.290;2022-10-26T08:03:20;12.90;17.30
429;DHT22;201;48.758;9.290;2022-10-26T08:05:46;12.90;17.40
429;DHT22;201;48.758;9.290;2022-10-26T08:08:16;13.00;17.30
429;DHT22;201;48.758;9.290;2022-10-26T08:10:45;13.10;17.50
429;DHT22;201;48.758;9.290;2022-10-26T08:13:11;13.10;17.40
429;DHT22;201;48.758;9.290;2022-10-26T08:15:37;13.20;17.10
429;DHT22;201;48.758;9.290;2022-10-26T08:18:03;13.30;16.90
429;DHT22;201;48.758;9.290;2022-10-26T08:20:28;13.40;16.50
429;DHT22;201;48.758;9.290;2022-10-26T08:22:58;13.60;15.90
429;DHT22;201;48.758;9.290;2022-10-26T08:25:24;13.70;15.50
429;DHT22;201;48.758;9.290;2022-10-26T08:27:50;13.80;15.50
429;DHT22;201;48.758;9.290;2022-10-26T08:30:15;13.90;14.60
429;DHT22;201;48.758;9.290;2022-10-26T08:32:41;14.00;13.70
429;DHT22;201;48.758;9.290;2022-10-26T08:35:08;14.00;12.90
429;DHT22;201;48.758;9.290;2022-10-26T08:37:34;14.00;12.70
429;DHT22;201;48.758;9.290;2022-10-26T08:39:59;14.00;12.50
429;DHT22;201;48.758;9.290;2022-10-26T08:45:06;14.00;12.50
429;DHT22;201;48.758;9.290;2022-10-26T08:47:40;14.00;12.50
429;DHT22;201;48.758;9.290;2022-10-26T08:50:25;13.90;13.00
429;DHT22;201;48.758;9.290;2022-10-26T08:55:33;13.90;13.80
429;DHT22;201;48.758;9.290;2022-10-26T08:58:03;13.80;13.90
429;DHT22;201;48.758;9.290;2022-10-26T09:00:29;13.90;14.60
429;DHT22;201;48.758;9.290;2022-10-26T09:02:55;14.00;14.00
429;DHT22;201;48.758;9.290;2022-10-26T09:05:34;13.90;13.80
429;DHT22;201;48.758;9.290;2022-10-26T09:08:16;13.90;13.80
429;DHT22;201;48.758;9.290;2022-10-26T09:11:00;14.00;13.90
429;DHT22;201;48.758;9.290;2022-10-26T09:13:41;14.00;13.30
429;DHT22;201;48.758;9.290;2022-10-26T09:21:42;14.70;13.00
429;DHT22;201;48.758;9.290;2022-10-26T09:24:14;15.10;12.30
429;DHT22;201;48.758;9.290;2022-10-26T09:27:03;15.70;11.20
429;DHT22;201;48.758;9.290;2022-10-26T09:29:38;16.30;7.80
429;DHT22;201;48.758;9.290;2022-10-26T09:32:18;17.10;6.00
429;DHT22;201;48.758;9.290;2022-10-26T09:34:51;17.50;2.20
429;DHT22;201;48.758;9.290;2022-10-26T09:37:20;17.90;1.00
429;DHT22;201;48.758;9.290;2022-10-26T09:39:50;18.10;1.00
429;DHT22;201;48.758;9.290;2022-10-26T09:42:25;18.40;1.00
429;DHT22;201;48.758;9.290;2022-10-26T09:44:59;18.70;1.00
429;DHT22;201;48.758;9.290;2022-10-26T09:47:39;18.80;1.00
429;DHT22;201;48.758;9.290;2022-10-26T09:50:14;18.80;1.00
429;DHT22;201;48.758;9.290;2022-10-26T09:52:41;18.70;1.00
429;DHT22;201;48.758;9.290;2022-10-26T09:55:10;18.60;1.00
429;DHT22;201;48.758;9.290;2022-10-26T09:57:42;18.50;1.00
429;DHT22;201;48.758;9.290;2022-10-26T10:00:18;18.30;1.00
429;DHT22;201;48.758;9.290;2022-10-26T10:02:49;18.10;1.00
429;DHT22;201;48.758;9.290;2022-10-26T10:05:21;18.30;1.00
429;DHT22;201;48.758;9.290;2022-10-26T10:07:48;18.50;1.00
429;DHT22;201;48.758;9.290;2022-10-26T10:10:19;18.60;1.00
429;DHT22;201;48.758;9.290;2022-10-26T10:12:46;18.50;1.00
429;DHT22;201;48.758;9.290;2022-10-26T10:17:49;18.80;1.00
429;DHT22;201;48.758;9.290;2022-10-26T10:20:33;18.90;1.00
429;DHT22;201;48.758;9.290;2022-10-26T10:23:00;19.00;1.00
429;DHT22;201;48.758;9.290;2022-10-26T10:25:37;18.80;1.00
429;DHT22;201;48.758;9.290;2022-10-26T10:28:19;19.00;1.00
429;DHT22;201;48.758;9.290;2022-10-26T10:30:52;19.20;1.00
429;DHT22;201;48.758;9.290;2022-10-26T10:33:19;19.20;1.00
429;DHT22;201;48.758;9.290;2022-10-26T10:35:49;19.10;1.00
429;DHT22;201;48.758;9.290;2022-10-26T10:38:17;19.20;1.00
429;DHT22;201;48.758;9.290;2022-10-26T10:40:52;19.40;1.00
429;DHT22;201;48.758;9.290;2022-10-26T10:43:19;19.70;1.00
429;DHT22;201;48.758;9.290;2022-10-26T10:45:51;20.20;1.00
429;DHT22;201;48.758;9.290;2022-10-26T10:48:22;20.70;1.00
429;DHT22;201;48.758;9.290;2022-10-26T10:50:56;20.90;1.00
429;DHT22;201;48.758;9.290;2022-10-26T10:56:47;21.10;1.00
429;DHT22;201;48.758;9.290;2022-10-26T11:08:05;21.10;1.00
429;DHT22;201;48.758;9.290;2022-10-26T11:10:38;21.10;1.00
429;DHT22;201;48.758;9.290;2022-10-26T11:13:24;21.10;1.00
429;DHT22;201;48.758;9.290;2022-10-26T11:15:57;21.10;1.00
429;DHT22;201;48.758;9.290;2022-10-26T11:18:30;21.30;1.00
429;DHT22;201;48.758;9.290;2022-10-26T11:21:35;21.50;1.00
429;DHT22;201;48.758;9.290;2022-10-26T11:24:20;21.80;1.00
429;DHT22;201;48.758;9.290;2022-10-26T11:27:03;22.10;1.00
429;DHT22;201;48.758;9.290;2022-10-26T11:29:40;22.30;1.00
429;DHT22;201;48.758;9.290;2022-10-26T11:32:14;22.40;1.00
429;DHT22;201;48.758;9.290;2022-10-26T11:34:57;22.40;1.00
429;DHT22;201;48.758;9.290;2022-10-26T11:40:20;22.60;1.00
429;DHT22;201;48.758;9.290;2022-10-26T11:42:51;22.60;1.00
429;DHT22;201;48.758;9.290;2022-10-26T11:45:29;22.70;1.00
429;DHT22;201;48.758;9.290;2022-10-26T11:48:23;22.70;1.00
429;DHT22;201;48.758;9.290;2022-10-26T11:50:55;22.70;1.00
429;DHT22;201;48.758;9.290;2022-10-26T11:53:37;22.60;1.00
429;DHT22;201;48.758;9.290;2022-10-26T11:56:07;22.50;1.00
429;DHT22;201;48.758;9.290;2022-10-26T11:58:36;22.50;1.00
429;DHT22;201;48.758;9.290;2022-10-26T12:01:08;22.40;1.00
429;DHT22;201;48.758;9.290;2022-10-26T12:03:37;22.30;1.00
429;DHT22;201;48.758;9.290;2022-10-26T12:06:05;22.30;1.00
429;DHT22;201;48.758;9.290;2022-10-26T12:08:39;22.30;1.00
429;DHT22;201;48.758;9.290;2022-10-26T12:13:53;22.60;1.00
429;DHT22;201;48.758;9.290;2022-10-26T12:17:03;22.80;1.00
429;DHT22;201;48.758;9.290;2022-10-26T12:19:33;22.90;1.00
429;DHT22;201;48.758;9.290;2022-10-26T12:22:01;22.90;1.00
429;DHT22;201;48.758;9.290;2022-10-26T12:24:29;22.90;1.00
429;DHT22;201;48.758;9.290;2022-10-26T12:27:01;22.90;1.00
429;DHT22;201;48.758;9.290;2022-10-26T12:29:43;22.90;1.00
429;DHT22;201;48.758;9.290;2022-10-26T12:34:58;22.60;1.00
429;DHT22;201;48.758;9.290;2022-10-26T12:37:33;22.60;1.00
429;DHT22;201;48.758;9.290;2022-10-26T12:56:56;21.90;1.00
429;DHT22;201;48.758;9.290;2022-10-26T12:59:40;21.80;1.00
429;DHT22;201;48.758;9.290;2022-10-26T13:02:42;21.80;1.00
429;DHT22;201;48.758;9.290;2022-10-26T13:05:36;21.60;1.00
429;DHT22;201;48.758;9.290;2022-10-26T13:08:09;21.70;1.00
429;DHT22;201;48.758;9.290;2022-10-26T13:10:37;21.80;1.00
429;DHT22;201;48.758;9.290;2022-10-26T13:13:05;22.00;1.00
429;DHT22;201;48.758;9.290;2022-10-26T13:15:52;22.10;1.00
429;DHT22;201;48.758;9.290;2022-10-26T13:18:19;22.10;1.00
429;DHT22;201;48.758;9.290;2022-10-26T13:21:04;22.20;1.00
429;DHT22;201;48.758;9.290;2022-10-26T13:23:34;22.30;1.00
429;DHT22;201;48.758;9.290;2022-10-26T13:26:16;22.20;1.00
429;DHT22;201;48.758;9.290;2022-10-26T13:28:49;22.20;1.00
429;DHT22;201;48.758;9.290;2022-10-26T13:34:18;22.40;1.00
429;DHT22;201;48.758;9.290;2022-10-26T13:39:40;22.90;1.00
429;DHT22;201;48.758;9.290;2022-10-26T13:42:12;22.90;1.00
429;DHT22;201;48.758;9.290;2022-10-26T13:45:01;22.90;1.00
429;DHT22;201;48.758;9.290;2022-10-26T13:50:27;22.80;1.00
429;DHT22;201;48.758;9.290;2022-10-26T13:53:07;22.70;1.00
429;DHT22;201;48.758;9.290;2022-10-26T13:55:39;22.70;1.00
429;DHT22;201;48.758;9.290;2022-10-26T13:58:28;22.50;1.00
429;DHT22;201;48.758;9.290;2022-10-26T14:03:42;22.40;1.00
429;DHT22;201;48.758;9.290;2022-10-26T14:08:54;22.30;1.00
429;DHT22;201;48.758;9.290;2022-10-26T14:11:25;22.30;1.00
429;DHT22;201;48.758;9.290;2022-10-26T14:13:52;22.30;1.00
429;DHT22;201;48.758;9.290;2022-10-26T14:16:18;22.30;1.00
429;DHT22;201;48.758;9.290;2022-10-26T14:18:48;22.20;1.00
429;DHT22;201;48.758;9.290;2022-10-26T14:21:17;21.90;1.00
429;DHT22;201;48.758;9.290;2022-10-26T14:23:52;21.70;1.00
429;DHT22;201;48.758;9.290;2022-10-26T14:26:25;21.50;1.00
429;DHT22;201;48.758;9.290;2022-10-26T14:28:55;21.40;1.00
429;DHT22;201;48.758;9.290;2022-10-26T14:33:47;21.20;1.00
429;DHT22;201;48.758;9.290;2022-10-26T14:36:14;21.20;1.00
429;DHT22;201;48.758;9.290;2022-10-26T14:38:44;21.30;1.00
429;DHT22;201;48.758;9.290;2022-10-26T14:41:12;21.40;1.00
429;DHT22;201;48.758;9.290;2022-10-26T14:43:39;21.50;1.00
429;DHT22;201;48.758;9.290;2022-10-26T14:46:05;21.70;1.00
429;DHT22;201;48.758;9.290;2022-10-26T14:48:37;21.80;1.00
429;DHT22;201;48.758;9.290;2022-10-26T14:51:17;21.80;1.00
429;DHT22;201;48.758;9.290;2022-10-26T14:53:50;21.90;1.00
429;DHT22;201;48.758;9.290;2022-10-26T14:58:47;21.80;1.00
429;DHT22;201;48.758;9.290;2022-10-26T15:04:04;21.50;1.00
429;DHT22;201;48.758;9.290;2022-10-26T15:06:38;21.40;1.00
429;DHT22;201;48.758;9.290;2022-10-26T15:09:04;21.20;1.00
429;DHT22;201;48.758;9.290;2022-10-26T15:11:33;20.90;1.00
429;DHT22;201;48.758;9.290;2022-10-26T15:13:59;20.80;1.00
429;DHT22;201;48.758;9.290;2022-10-26T15:16:28;20.60;1.00
429;DHT22;201;48.758;9.290;2022-10-26T15:19:06;20.50;1.00
429;DHT22;201;48.758;9.290;2022-10-26T15:21:35;20.40;1.00
429;DHT22;201;48.758;9.290;2022-10-26T15:24:02;20.30;1.00
429;DHT22;201;48.758;9.290;2022-10-26T15:26:41;20.20;1.00
429;DHT22;201;48.758;9.290;2022-10-26T15:29:37;20.10;1.00
429;DHT22;201;48.758;9.290;2022-10-26T15:32:14;20.00;1.00
429;DHT22;201;48.758;9.290;2022-10-26T15:34:41;19.90;1.00
429;DHT22;201;48.758;9.290;2022-10-26T15:37:07;19.80;1.00
429;DHT22;201;48.758;9.290;2022-10-26T15:39:32;19.70;1.00
429;DHT22;201;48.758;9.290;2022-10-26T15:41:58;19.60;1.00
429;DHT22;201;48.758;9.290;2022-10-26T15:44:24;19.50;1.00
429;DHT22;201;48.758;9.290;2022-10-26T15:46:50;19.40;1.00
429;DHT22;201;48.758;9.290;2022-10-26T15:49:18;19.20;1.00
429;DHT22;201;48.758;9.290;2022-10-26T15:51:45;19.10;1.00
429;DHT22;201;48.758;9.290;2022-10-26T15:54:11;18.90;1.00
429;DHT22;201;48.758;9.290;2022-10-26T15:56:37;18.70;1.00
429;DHT22;201;48.758;9.290;2022-10-26T15:59:13;18.60;1.00
429;DHT22;201;48.758;9.290;2022-10-26T16:01:40;18.60;1.00
429;DHT22;201;48.758;9.290;2022-10-26T16:04:05;18.40;1.00
429;DHT22;201;48.758;9.290;2022-10-26T16:06:33;18.30;1.00
429;DHT22;201;48.758;9.290;2022-10-26T16:09:01;18.20;1.00
429;DHT22;201;48.758;9.290;2022-10-26T16:11:27;18.10;1.00
429;DHT22;201;48.758;9.290;2022-10-26T16:13:53;18.00;1.00
429;DHT22;201;48.758;9.290;2022-10-26T16:16:19;17.90;1.00
429;DHT22;201;48.758;9.290;2022-10-26T16:18:46;17.80;1.00
429;DHT22;201;48.758;9.290;2022-10-26T16:21:17;17.70;1.00
429;DHT22;201;48.758;9.290;2022-10-26T16:23:48;17.60;1.00
429;DHT22;201;48.758;9.290;2022-10-26T16:26:13;17.50;1.00
429;DHT22;201;48.758;9.290;2022-10-26T16:28:39;17.40;1.00
429;DHT22;201;48.758;9.290;2022-10-26T16:31:07;17.30;1.00
429;DHT22;201;48.758;9.290;2022-10-26T16:33:33;17.20;1.00
429;DHT22;201;48.758;9.290;2022-10-26T16:36:03;17.10;1.30
429;DHT22;201;48.758;9.290;2022-10-26T16:38:30;16.90;1.60
429;DHT22;201;48.758;9.290;2022-10-26T16:41:04;16.90;1.60
429;DHT22;201;48.758;9.290;2022-10-26T16:43:35;16.70;2.20
429;DHT22;201;48.758;9.290;2022-10-26T16:46:13;16.70;2.20
429;DHT22;201;48.758;9.290;2022-10-26T16:48:40;16.60;2.70
429;DHT22;201;48.758;9.290;2022-10-26T16:53:50;16.40;3.10
429;DHT22;201;48.758;9.290;2022-10-26T16:56:18;16.40;3.70
429;DHT22;201;48.758;9.290;2022-10-26T16:58:44;16.30;3.60
429;DHT22;201;48.758;9.290;2022-10-26T17:01:11;16.20;3.90
429;DHT22;201;48.758;9.290;2022-10-26T17:03:38;16.20;4.90
429;DHT22;201;48.758;9.290;2022-10-26T17:06:05;16.10;4.50
429;DHT22;201;48.758;9.290;2022-10-26T17:08:33;16.00;5.10
429;DHT22;201;48.758;9.290;2022-10-26T17:11:18;15.80;5.00
429;DHT22;201;48.758;9.290;2022-10-26T17:13:45;15.70;5.70
429;DHT22;201;48.758;9.290;2022-10-26T17:16:16;15.70;6.40
429;DHT22;201;48.758;9.290;2022-10-26T17:18:42;15.60;6.40
429;DHT22;201;48.758;9.290;2022-10-26T17:21:09;15.60;5.90
429;DHT22;201;48.758;9.290;2022-10-26T17:23:35;15.60;5.90
429;DHT22;201;48.758;9.290;2022-10-26T17:26:02;15.60;5.80
429;DHT22;201;48.758;9.290;2022-10-26T17:28:29;15.70;5.90
429;DHT22;201;48.758;9.290;2022-10-26T17:31:20;15.70;6.00
429;DHT22;201;48.758;9.290;2022-10-26T17:33:46;15.80;5.90
429;DHT22;201;48.758;9.290;2022-10-26T17:36:20;15.80;5.80
429;DHT22;201;48.758;9.290;2022-10-26T17:38:51;15.80;5.90
429;DHT22;201;48.758;9.290;2022-10-26T17:41:19;15.80;6.00
429;DHT22;201;48.758;9.290;2022-10-26T17:43:46;15.80;6.20
429;DHT22;201;48.758;9.290;2022-10-26T17:46:20;15.80;6.30
429;DHT22;201;48.758;9.290;2022-10-26T17:48:46;15.80;6.10
429;DHT22;201;48.758;9.290;2022-10-26T17:51:13;15.70;6.00
429;DHT22;201;48.758;9.290;2022-10-26T17:53:39;15.70;6.00
429;DHT22;201;48.758;9.290;2022-10-26T17:56:07;15.50;6.20
429;DHT22;201;48.758;9.290;2022-10-26T17:58:34;15.50;6.50
429;DHT22;201;48.758;9.290;2022-10-26T18:01:02;15.40;6.80
429;DHT22;201;48.758;9.290;2022-10-26T18:03:28;15.40;6.90
429;DHT22;201;48.758;9.290;2022-10-26T18:05:53;15.30;6.90
429;DHT22;201;48.758;9.290;2022-10-26T18:08:19;15.30;6.50
429;DHT22;201;48.758;9.290;2022-10-26T18:10:52;15.30;6.40
429;DHT22;201;48.758;9.290;2022-10-26T18:13:19;15.20;6.20
429;DHT22;201;48.758;9.290;2022-10-26T18:15:45;15.20;6.10
429;DHT22;201;48.758;9.290;2022-10-26T18:18:11;15.20;6.70
429;DHT22;201;48.758;9.290;2022-10-26T18:20:36;15.20;7.20
429;DHT22;201;48.758;9.290;2022-10-26T18:23:02;15.30;7.60
429;DHT22;201;48.758;9.290;2022-10-26T18:25:28;15.30;8.00
429;DHT22;201;48.758;9.290;2022-10-26T18:27:55;15.30;7.90
429;DHT22;201;48.758;9.290;2022-10-26T18:30:21;15.20;7.90
429;DHT22;201;48.758;9.290;2022-10-26T18:32:50;15.20;8.00
429;DHT22;201;48.758;9.290;2022-10-26T18:35:16;15.10;8.20
429;DHT22;201;48.758;9.290;2022-10-26T18:37:42;15.00;8.40
429;DHT22;201;48.758;9.290;2022-10-26T18:40:08;14.90;9.10
429;DHT22;201;48.758;9.290;2022-10-26T18:42:34;14.90;9.80
429;DHT22;201;48.758;9.290;2022-10-26T18:45:00;14.90;9.90
429;DHT22;201;48.758;9.290;2022-10-26T18:47:28;14.90;9.80
429;DHT22;201;48.758;9.290;2022-10-26T18:49:54;14.90;9.70
429;DHT22;201;48.758;9.290;2022-10-26T18:52:19;14.90;9.50